Time;durP1;ratioP1;P1;durP2;ratioP2;P2;SDS_P1;SDS_P2;PMS_P1;PMS_P2;Temp;Humidity;BMP_temperature;BMP_pressure;BME280_temperature;BME280_humidity;BME280_pressure;Samples;Min_cycle;Max_cycle;Signal;HPM_P1;HPM_P2
2022/06/09 00:01:03;;;;;;;6.85;4.40;;;;;;;14.28;100.00;100600.09;5016132;28;20041;-80
2022/06/09 00:03:37;;;;;;;7.50;4.88;;;;;;;14.31;100.00;100601.59;5049774;28;20487;-79
2022/06/09 00:06:06;;;;;;;6.05;5.07;;;;;;;14.40;100.00;100621.75;5049310;28;20074;-80
2022/06/09 00:08:32;;;;;;;8.80;5.10;;;;;;;14.23;100.00;100597.16;5050729;28;20051;-79
2022/06/09 00:11:01;;;;;;;8.23;5.03;;;;;;;14.28;100.00;100613.38;5049956;28;20021;-79
2022/06/09 00:13:28;;;;;;;8.52;4.90;;;;;;;14.32;100.00;100605.88;5026982;28;20038;-79
2022/06/09 00:15:54;;;;;;;7.97;5.88;;;;;;;14.30;100.00;100614.03;5032761;28;20507;-79
2022/06/09 00:18:19;;;;;;;5.88;4.90;;;;;;;14.09;100.00;100579.38;5032457;28;20017;-79
2022/06/09 00:20:45;;;;;;;9.40;5.97;;;;;;;14.26;100.00;100619.88;5049563;28;20021;-79
2022/06/09 00:23:13;;;;;;;7.93;6.78;;;;;;;14.24;100.00;100621.88;5016116;28;20479;-79
2022/06/09 00:25:39;;;;;;;8.32;6.18;;;;;;;14.13;100.00;100616.03;5031720;28;20396;-79
2022/06/09 00:28:04;;;;;;;8.73;6.28;;;;;;;14.12;100.00;100616.19;5015642;28;20047;-80
2022/06/09 00:30:30;;;;;;;9.57;7.10;;;;;;;13.98;100.00;100597.41;4998539;28;20029;-80
2022/06/09 00:32:55;;;;;;;6.57;5.43;;;;;;;14.15;100.00;100623.78;5014080;28;20025;-80
2022/06/09 00:35:21;;;;;;;10.23;6.85;;;;;;;14.10;100.00;100623.50;5049473;28;20082;-80
2022/06/09 00:37:46;;;;;;;7.20;4.63;;;;;;;14.07;100.00;100631.84;5032624;28;20278;-80
2022/06/09 00:40:14;;;;;;;8.77;5.53;;;;;;;14.04;100.00;100632.16;5031174;28;20033;-79
2022/06/09 00:42:39;;;;;;;9.32;5.70;;;;;;;14.01;100.00;100635.19;5031652;28;20082;-79
2022/06/09 00:45:46;;;;;;;12.00;6.15;;;;;;;14.01;100.00;100629.88;5049898;28;20037;-79
2022/06/09 00:48:21;;;;;;;7.80;5.85;;;;;;;13.96;100.00;100633.88;4968554;28;20085;-80
2022/06/09 00:50:50;;;;;;;8.48;5.93;;;;;;;13.76;100.00;100606.16;4967528;28;20081;-79
2022/06/09 00:53:23;;;;;;;8.02;6.05;;;;;;;13.75;100.00;100617.78;4953022;28;20035;-79
2022/06/09 00:55:50;;;;;;;14.48;7.22;;;;;;;13.74;100.00;100619.63;4952904;28;20529;-79
2022/06/09 00:58:19;;;;;;;10.15;7.47;;;;;;;13.62;100.00;100614.91;4936533;28;20066;-80
2022/06/09 01:00:50;;;;;;;11.32;7.53;;;;;;;13.74;100.00;100642.66;4951206;28;20045;-79
2022/06/09 01:03:17;;;;;;;;;;;;;;;13.72;100.00;100639.38;4952568;28;20019;-79
2022/06/09 01:05:44;;;;;;;12.75;7.10;;;;;;;13.71;100.00;100640.34;4965027;28;20227;-79
2022/06/09 01:08:10;;;;;;;14.85;8.38;;;;;;;13.50;100.00;100623.25;4968628;28;20030;-79
2022/06/09 01:10:36;;;;;;;13.30;7.95;;;;;;;13.67;100.00;100644.34;4967682;28;20034;-79
2022/06/09 01:13:02;;;;;;;14.18;7.93;;;;;;;13.70;100.00;100654.63;4968287;28;20129;-79
2022/06/09 01:15:57;;;;;;;11.05;7.93;;;;;;;13.71;100.00;100646.47;4969462;28;20065;-79
2022/06/09 01:18:41;;;;;;;14.20;8.88;;;;;;;13.54;100.00;100613.09;4982824;28;20055;-79
2022/06/09 01:21:09;;;;;;;17.15;9.23;;;;;;;13.83;100.00;100660.19;5032374;28;20025;-79
2022/06/09 01:24:09;;;;;;;16.70;9.90;;;;;;;13.87;100.00;100661.50;5051084;28;20055;-80
2022/06/09 01:27:13;;;;;;;20.10;11.05;;;;;;;13.95;100.00;100664.06;5030405;28;20030;-80
2022/06/09 01:29:46;;;;;;;16.45;8.63;;;;;;;13.98;100.00;100653.13;5026015;28;20036;-80
2022/06/09 01:32:27;;;;;;;16.08;9.30;;;;;;;13.90;100.00;100647.84;5035354;28;20032;-79
2022/06/09 01:35:05;;;;;;;22.77;11.57;;;;;;;13.94;100.00;100641.19;5053384;28;20036;-79
2022/06/09 01:37:36;;;;;;;23.30;11.35;;;;;;;14.05;100.00;100663.84;5032259;28;20158;-79
2022/06/09 01:40:06;;;;;;;16.52;10.35;;;;;;;14.12;100.00;100662.13;5054084;28;20036;-80
2022/06/09 01:42:35;;;;;;;17.85;10.57;;;;;;;14.12;100.00;100663.97;5035298;28;20255;-79
2022/06/09 01:45:10;;;;;;;19.90;10.45;;;;;;;14.08;100.00;100662.66;5054501;28;20519;-79
2022/06/09 01:47:44;;;;;;;20.60;10.63;;;;;;;13.92;100.00;100643.19;5053824;28;20037;-79
2022/06/09 01:50:16;;;;;;;25.75;11.77;;;;;;;13.99;100.00;100649.44;5053774;28;20028;-79
2022/06/09 01:52:44;;;;;;;29.73;13.13;;;;;;;14.11;100.00;100664.94;5053373;28;20032;-79
2022/06/09 01:55:15;;;;;;;23.50;11.60;;;;;;;13.94;100.00;100643.84;5031128;28;20466;-79
2022/06/09 01:57:42;;;;;;;26.58;11.82;;;;;;;13.98;100.00;100652.28;5070477;28;20111;-79
2022/06/09 02:00:14;;;;;;;25.73;12.38;;;;;;;13.90;100.00;100650.50;5073587;28;20043;-79
2022/06/09 02:03:06;;;;;;;26.13;12.55;;;;;;;13.94;100.00;100651.81;5067133;28;20070;-80
2022/06/09 02:05:39;;;;;;;28.23;14.27;;;;;;;14.08;100.00;100678.59;5066226;28;20556;-80
2022/06/09 02:08:08;;;;;;;29.85;14.40;;;;;;;14.07;100.00;100676.94;5072565;28;20066;-80
2022/06/09 02:10:40;;;;;;;25.73;13.43;;;;;;;14.12;100.00;100690.50;5072508;28;20032;-79
2022/06/09 02:13:09;;;;;;;20.85;11.73;;;;;;;14.13;100.00;100694.78;5070899;28;20025;-79
2022/06/09 02:15:50;;;;;;;23.92;12.43;;;;;;;14.16;100.00;100691.78;5073607;28;20384;-79
2022/06/09 02:18:21;;;;;;;35.50;13.15;;;;;;;14.05;100.00;100673.63;5073365;28;20499;-79
2022/06/09 02:21:14;;;;;;;32.58;14.38;;;;;;;14.16;100.00;100694.44;5071518;28;20021;-80
2022/06/09 02:23:40;;;;;;;28.23;13.43;;;;;;;14.04;100.00;100678.09;5072118;28;20074;-80
2022/06/09 02:26:06;;;;;;;30.08;13.48;;;;;;;14.07;100.00;100688.38;5054015;28;20591;-80
2022/06/09 02:28:32;;;;;;;34.70;14.27;;;;;;;14.09;100.00;100693.47;5070719;28;20040;-80
2022/06/09 02:30:57;;;;;;;36.03;15.00;;;;;;;13.94;100.00;100686.31;5036510;28;20044;-80
2022/06/09 02:33:23;;;;;;;26.27;12.55;;;;;;;14.03;100.00;100699.53;5068635;28;20081;-80
2022/06/09 02:35:50;;;;;;;34.20;13.50;;;;;;;14.14;100.00;100720.34;5071507;28;20016;-79
2022/06/09 02:38:17;;;;;;;34.63;13.23;;;;;;;14.05;100.00;100705.47;5069371;28;20052;-79
2022/06/09 02:40:43;;;;;;;30.25;13.00;;;;;;;14.03;100.00;100707.47;5071077;28;20028;-79
2022/06/09 02:43:08;;;;;;;29.27;12.77;;;;;;;14.10;100.00;100719.03;5070292;28;20395;-79
2022/06/09 02:45:34;;;;;;;34.67;13.93;;;;;;;13.93;100.00;100705.03;5053893;28;20115;-79
2022/06/09 02:48:01;;;;;;;32.20;13.02;;;;;;;14.08;100.00;100734.31;5071462;28;20020;-79
2022/06/09 02:50:27;;;;;;;32.08;13.45;;;;;;;14.07;100.00;100730.00;5071283;28;20025;-79
2022/06/09 02:52:52;;;;;;;23.45;12.80;;;;;;;14.05;100.00;100726.72;5072661;28;20032;-80
2022/06/09 02:55:17;;;;;;;25.25;12.07;;;;;;;14.02;100.00;100719.91;5071272;28;20405;-80
2022/06/09 02:57:43;;;;;;;26.02;13.95;;;;;;;13.91;100.00;100710.50;5071394;28;20028;-80
2022/06/09 03:00:14;;;;;;;25.67;13.98;;;;;;;14.03;100.00;100732.19;5072392;28;20040;-80
2022/06/09 03:02:43;;;;;;;24.67;12.88;;;;;;;13.92;100.00;100720.13;5069249;28;20051;-80
2022/06/09 03:05:10;;;;;;;26.83;13.95;;;;;;;13.95;100.00;100727.75;5070139;28;20392;-80
2022/06/09 03:07:35;;;;;;;27.33;14.50;;;;;;;13.78;100.00;100704.94;5071922;28;20095;-80
2022/06/09 03:10:00;;;;;;;28.90;13.68;;;;;;;14.02;100.00;100735.81;5069958;28;20048;-79
2022/06/09 03:12:26;;;;;;;25.52;13.73;;;;;;;13.88;100.00;100724.13;5070786;28;20024;-79
2022/06/09 03:14:51;;;;;;;30.98;14.13;;;;;;;14.05;100.00;100742.63;5053233;28;20032;-79
2022/06/09 03:17:17;;;;;;;26.83;14.52;;;;;;;13.89;100.00;100725.81;5054731;28;20020;-79
2022/06/09 03:19:42;;;;;;;23.13;13.38;;;;;;;13.95;100.00;100733.03;5054801;28;20036;-79
2022/06/09 03:22:08;;;;;;;27.13;14.73;;;;;;;14.05;100.00;100742.63;5084418;28;20028;-79
2022/06/09 03:24:33;;;;;;;24.10;14.18;;;;;;;13.89;100.00;100731.13;5068653;28;20036;-80
2022/06/09 03:26:59;;;;;;;27.85;14.60;;;;;;;13.84;100.00;100728.13;5054373;28;20020;-80
2022/06/09 03:29:25;;;;;;;25.60;13.48;;;;;;;13.83;100.00;100723.84;5070801;28;20032;-79
2022/06/09 03:31:50;;;;;;;27.42;14.98;;;;;;;14.01;100.00;100752.75;5070960;28;20033;-79
2022/06/09 03:34:18;;;;;;;27.38;14.70;;;;;;;13.99;100.00;100755.56;5070240;28;20012;-79
2022/06/09 03:36:44;;;;;;;22.85;13.50;;;;;;;14.06;100.00;100760.19;5071558;28;20032;-79
2022/06/09 03:39:11;;;;;;;22.52;13.40;;;;;;;14.01;100.00;100762.56;5070352;28;20029;-79
2022/06/09 03:41:36;;;;;;;27.52;13.93;;;;;;;13.99;100.00;100771.50;5072581;28;20066;-80
2022/06/09 03:44:03;;;;;;;26.48;13.70;;;;;;;13.87;100.00;100746.38;5053214;28;20456;-79
2022/06/09 03:46:28;;;;;;;28.13;14.43;;;;;;;14.02;100.00;100775.63;5072000;28;20025;-79
2022/06/09 03:48:54;;;;;;;24.60;13.82;;;;;;;14.03;100.00;100781.78;5070332;28;20563;-79
2022/06/09 03:51:19;;;;;;;24.00;13.82;;;;;;;13.94;100.00;100757.13;5068754;28;20387;-79
2022/06/09 03:53:45;;;;;;;23.55;13.70;;;;;;;14.01;100.00;100765.22;5052995;28;20043;-79
2022/06/09 03:56:21;;;;;;;22.17;14.93;;;;;;;14.07;100.00;100780.44;5070048;28;20049;-79
2022/06/09 03:58:47;;;;;;;22.92;14.23;;;;;;;13.99;100.00;100770.69;5067595;28;20464;-79
2022/06/09 04:01:17;;;;;;;26.10;14.13;;;;;;;14.09;100.00;100786.38;5070074;28;21123;-79
2022/06/09 04:03:46;;;;;;;23.30;12.60;;;;;;;13.90;100.00;100766.41;5051766;28;20503;-79
2022/06/09 04:06:18;;;;;;;28.02;15.02;;;;;;;14.06;100.00;100798.16;5069990;28;20027;-80
2022/06/09 04:08:44;;;;;;;29.58;15.80;;;;;;;13.79;100.00;100770.28;5072503;28;20498;-80
2022/06/09 04:11:10;;;;;;;28.48;16.10;;;;;;;14.03;100.00;100803.00;5072296;28;20024;-80
2022/06/09 04:13:38;;;;;;;28.48;14.90;;;;;;;14.09;100.00;100808.44;5070584;28;20032;-80
2022/06/09 04:16:21;;;;;;;24.50;14.77;;;;;;;13.92;100.00;100791.78;5069824;28;20060;-80
2022/06/09 04:18:46;;;;;;;23.70;15.77;;;;;;;14.02;100.00;100796.03;5069747;28;20067;-80
2022/06/09 04:21:12;;;;;;;23.40;13.18;;;;;;;14.17;100.00;100820.81;5069933;28;20024;-80
2022/06/09 04:23:37;;;;;;;29.27;15.05;;;;;;;14.22;100.00;100817.66;5070703;28;20092;-80
2022/06/09 04:26:03;;;;;;;27.25;14.20;;;;;;;14.03;100.00;100798.53;5070626;28;20565;-80
2022/06/09 04:28:28;;;;;;;28.95;16.35;;;;;;;14.23;100.00;100814.84;5069034;28;20035;-80
2022/06/09 04:30:54;;;;;;;26.40;14.57;;;;;;;14.29;100.00;100824.75;5069812;28;20043;-80
2022/06/09 04:33:19;;;;;;;27.30;16.48;;;;;;;14.24;100.00;100799.72;5069173;28;20436;-80
2022/06/09 04:35:44;;;;;;;28.65;15.82;;;;;;;14.30;100.00;100813.13;5035270;28;20024;-80
2022/06/09 04:38:11;;;;;;;29.83;16.40;;;;;;;14.46;100.00;100829.94;5052750;28;20560;-80
2022/06/09 04:40:39;;;;;;;26.63;14.75;;;;;;;14.41;100.00;100817.19;5065886;28;20135;-80
2022/06/09 04:43:10;;;;;;;23.30;15.52;;;;;;;14.36;100.00;100803.63;5069003;28;20020;-80
2022/06/09 04:45:36;;;;;;;;;;;;;;;14.61;100.00;100833.53;5068047;28;20032;-80
2022/06/09 04:48:03;;;;;;;30.25;15.05;;;;;;;14.53;100.00;100830.91;5051981;28;19916;-80
2022/06/09 04:50:29;;;;;;;26.25;15.10;;;;;;;14.71;100.00;100852.72;5064954;28;20396;-80
2022/06/09 04:52:54;;;;;;;26.48;15.70;;;;;;;14.65;100.00;100850.78;5069759;28;20020;-80
2022/06/09 04:55:19;;;;;;;28.80;16.33;;;;;;;14.65;100.00;100849.94;5067310;28;20083;-80
2022/06/09 04:57:45;;;;;;;28.17;16.02;;;;;;;14.70;100.00;100859.06;5030506;28;20388;-80
2022/06/09 05:00:13;;;;;;;27.42;15.77;;;;;;;14.58;100.00;100839.22;5049453;28;20032;-80
2022/06/09 05:02:38;;;;;;;27.35;15.13;;;;;;;14.61;100.00;100852.13;5067149;28;20020;-80
2022/06/09 05:05:05;;;;;;;27.33;15.57;;;;;;;14.70;100.00;100869.69;5065667;28;20404;-80
2022/06/09 05:07:31;;;;;;;27.27;15.63;;;;;;;14.70;100.00;100851.09;5067591;28;20021;-80
2022/06/09 05:09:56;;;;;;;25.85;15.68;;;;;;;14.82;100.00;100864.78;5048752;28;20474;-80
2022/06/09 05:12:22;;;;;;;31.75;17.95;;;;;;;14.83;100.00;100869.09;5046153;28;20049;-80
2022/06/09 05:14:48;;;;;;;23.42;14.77;;;;;;;14.77;100.00;100856.50;5064917;28;20040;-80
2022/06/09 05:17:14;;;;;;;23.58;14.73;;;;;;;14.92;100.00;100875.19;5049803;28;20081;-80
2022/06/09 05:19:39;;;;;;;21.42;13.23;;;;;;;14.93;100.00;100866.19;5067262;28;20439;-80
2022/06/09 05:22:05;;;;;;;19.95;12.88;;;;;;;14.74;100.00;100862.16;5066744;28;20017;-78
2022/06/09 05:24:30;;;;;;;21.25;12.05;;;;;;;14.86;100.00;100889.16;5049804;28;20041;-78
2022/06/09 05:26:55;;;;;;;20.17;11.23;;;;;;;14.85;100.00;100887.50;5067597;28;20031;-78
2022/06/09 05:29:21;;;;;;;19.50;11.05;;;;;;;14.91;100.00;100898.25;5068885;28;20128;-80
2022/06/09 05:31:46;;;;;;;18.65;11.32;;;;;;;14.92;100.00;100883.97;5066108;28;20412;-79
2022/06/09 05:34:12;;;;;;;15.20;10.27;;;;;;;14.96;100.00;100895.91;5066194;28;20037;-78
2022/06/09 05:36:38;;;;;;;13.18;8.48;;;;;;;15.05;100.00;100901.97;5067275;28;20039;-79
2022/06/09 05:47:19;;;;;;;14.95;8.55;;;;;;;15.81;100.00;100894.81;5065331;28;20503;-80
2022/06/09 05:49:47;;;;;;;13.43;9.00;;;;;;;15.97;100.00;100896.47;5050068;28;20033;-80
2022/06/09 05:52:14;;;;;;;13.07;8.57;;;;;;;16.08;100.00;100902.34;5064943;28;20036;-82
2022/06/09 05:54:40;;;;;;;16.05;9.75;;;;;;;16.02;100.00;100888.75;5045251;28;20040;-80
2022/06/09 05:57:06;;;;;;;16.10;10.23;;;;;;;16.08;100.00;100889.03;5060511;28;20435;-80
2022/06/09 05:59:32;;;;;;;12.45;8.82;;;;;;;16.31;99.79;100916.38;5045742;28;20101;-80
2022/06/09 06:01:57;;;;;;;15.02;9.52;;;;;;;16.57;99.16;100915.00;5049209;28;20040;-80
2022/06/09 06:04:22;;;;;;;13.75;9.20;;;;;;;16.79;98.79;100918.56;5069968;28;20067;-80
2022/06/09 06:06:48;;;;;;;12.65;8.93;;;;;;;17.14;97.99;100940.06;5051351;28;20376;-80
2022/06/09 06:09:16;;;;;;;16.10;9.20;;;;;;;17.00;96.77;100939.09;5071173;28;20032;-80
2022/06/09 06:11:43;;;;;;;13.15;9.15;;;;;;;17.06;96.26;100951.66;5069582;28;20396;-80
2022/06/09 06:14:08;;;;;;;14.32;9.35;;;;;;;16.94;95.75;100963.84;5051994;28;20013;-80
2022/06/09 06:16:35;;;;;;;15.35;10.98;;;;;;;16.74;96.86;100952.94;5048200;28;20040;-80
2022/06/09 06:19:00;;;;;;;18.17;11.65;;;;;;;16.78;97.57;100989.66;5071023;28;20017;-80
2022/06/09 06:21:26;;;;;;;18.33;11.27;;;;;;;16.61;97.43;100988.22;5036563;28;20090;-80
2022/06/09 06:23:53;;;;;;;17.58;12.52;;;;;;;16.41;98.66;100980.81;5068568;28;20501;-80
2022/06/09 06:26:19;;;;;;;20.25;12.18;;;;;;;16.31;98.85;100990.09;5069065;28;20020;-80
2022/06/09 06:28:44;;;;;;;20.60;10.65;;;;;;;16.17;99.77;100983.75;5052286;28;20029;-80
2022/06/09 06:31:10;;;;;;;14.95;10.23;;;;;;;16.16;99.22;100976.81;5052267;28;20331;-80
2022/06/09 06:33:35;;;;;;;13.57;9.15;;;;;;;16.17;99.15;100989.09;5052495;28;20689;-80
2022/06/09 06:36:01;;;;;;;14.95;9.88;;;;;;;16.37;99.62;101021.31;5049208;28;20447;-80
2022/06/09 06:38:27;;;;;;;15.85;10.10;;;;;;;16.36;99.38;101017.84;5085764;28;20028;-80
2022/06/09 06:40:54;;;;;;;16.52;10.55;;;;;;;16.14;99.71;100986.81;5034113;28;20068;-80
2022/06/09 06:43:20;;;;;;;21.13;12.13;;;;;;;16.39;100.00;101003.31;5069260;28;20388;-80
2022/06/09 06:45:46;;;;;;;19.75;11.38;;;;;;;16.73;99.57;101024.06;5067258;28;20036;-80
2022/06/09 06:48:11;;;;;;;16.15;10.40;;;;;;;16.88;98.81;101026.75;5070530;28;20400;-80
2022/06/09 06:50:36;;;;;;;14.57;10.45;;;;;;;16.99;97.13;101015.59;5069965;28;20361;-80
2022/06/09 06:53:02;;;;;;;13.48;8.80;;;;;;;17.61;96.87;101013.31;5051697;28;20028;-80
2022/06/09 06:55:29;;;;;;;15.35;9.88;;;;;;;18.05;93.96;101021.09;5035444;28;20117;-80
2022/06/09 06:57:54;;;;;;;11.98;9.20;;;;;;;18.31;92.11;101030.28;5052103;28;20036;-80
2022/06/09 07:00:22;;;;;;;12.88;9.55;;;;;;;18.15;91.14;101027.94;5050598;28;20040;-80
2022/06/09 07:02:49;;;;;;;14.35;11.43;;;;;;;18.15;91.29;101041.28;5067977;28;20032;-80
2022/06/09 07:05:17;;;;;;;20.00;12.45;;;;;;;18.03;91.49;101027.63;5066401;28;20020;-80
2022/06/09 07:07:42;;;;;;;15.82;10.52;;;;;;;17.80;91.23;101023.31;5051347;28;20032;-80
2022/06/09 07:10:10;;;;;;;14.32;11.13;;;;;;;17.87;91.67;101034.09;5034292;28;20047;-80
2022/06/09 07:12:37;;;;;;;14.20;10.48;;;;;;;17.93;91.44;101029.84;5068717;28;20078;-80
2022/06/09 07:15:03;;;;;;;13.75;10.48;;;;;;;18.25;92.05;101036.44;5068168;28;20035;-80
2022/06/09 07:17:29;;;;;;;12.55;9.05;;;;;;;18.53;89.65;101017.69;5033615;28;20028;-80
2022/06/09 07:19:54;;;;;;;10.70;8.45;;;;;;;18.97;89.36;101050.38;5068293;28;20391;-80
2022/06/09 07:22:20;;;;;;;10.13;8.05;;;;;;;19.44;89.05;101033.38;5067767;28;20039;-80
2022/06/09 07:24:47;;;;;;;7.40;6.45;;;;;;;19.97;85.03;101040.66;5067087;28;20510;-80
2022/06/09 07:27:12;;;;;;;8.27;6.47;;;;;;;20.45;83.44;101064.50;5063045;28;20108;-80
2022/06/09 07:29:38;;;;;;;7.82;6.25;;;;;;;20.74;80.15;101068.56;5068011;28;20434;-80
2022/06/09 07:32:04;;;;;;;8.07;6.68;;;;;;;20.87;78.72;101056.97;5031149;28;20531;-80
2022/06/09 07:34:30;;;;;;;9.27;6.53;;;;;;;21.49;77.84;101077.91;5068375;28;20364;-80
2022/06/09 07:36:56;;;;;;;8.18;6.60;;;;;;;21.09;78.62;101059.34;5066199;28;20027;-81
2022/06/09 07:39:21;;;;;;;6.95;5.93;;;;;;;20.80;78.26;101066.91;5069116;28;20183;-80
2022/06/09 07:41:46;;;;;;;6.78;6.07;;;;;;;21.01;80.34;101075.66;5033863;28;20035;-80
2022/06/09 07:44:12;;;;;;;6.05;5.32;;;;;;;21.93;79.56;101087.72;5068261;28;20036;-80
2022/06/09 07:46:39;;;;;;;6.55;5.68;;;;;;;22.23;75.46;101083.56;5065750;28;20060;-81
2022/06/09 07:49:06;;;;;;;7.15;5.57;;;;;;;22.75;74.02;101089.41;5067012;28;20439;-81
2022/06/09 07:51:32;;;;;;;7.70;5.10;;;;;;;22.25;74.15;101092.22;5066503;28;20024;-80
2022/06/09 07:53:58;;;;;;;6.40;4.25;;;;;;;21.69;75.00;101086.66;5083767;28;20024;-80
2022/06/09 07:56:23;;;;;;;6.68;4.63;;;;;;;22.38;73.89;101090.25;5053082;28;20037;-80
2022/06/09 07:58:49;;;;;;;6.20;3.88;;;;;;;22.85;70.61;101100.47;5047669;28;20048;-80
2022/06/09 08:01:17;;;;;;;5.63;3.33;;;;;;;23.58;68.55;101093.31;5047827;28;20029;-80
2022/06/09 08:03:42;;;;;;;5.63;3.72;;;;;;;23.71;68.28;101113.84;5048141;28;20056;-80
2022/06/09 08:06:10;;;;;;;4.20;2.90;;;;;;;24.02;67.77;101110.06;5030812;28;20063;-80
2022/06/09 08:08:35;;;;;;;5.35;3.05;;;;;;;24.19;68.95;101111.03;5031326;28;20057;-80
2022/06/09 08:11:00;;;;;;;4.15;3.00;;;;;;;24.54;65.34;101099.44;5031340;28;20103;-81
2022/06/09 08:13:26;;;;;;;4.53;2.50;;;;;;;25.26;64.45;101119.81;5012252;28;20029;-81
2022/06/09 08:15:53;;;;;;;4.05;3.35;;;;;;;25.27;64.06;101121.44;5048111;28;20159;-80
2022/06/09 08:18:18;;;;;;;3.35;2.00;;;;;;;25.58;63.30;101111.19;5031107;28;20024;-81
2022/06/09 08:20:44;;;;;;;7.32;2.05;;;;;;;25.45;61.26;101123.91;5030960;28;20037;-80
2022/06/09 08:23:18;;;;;;;3.97;1.90;;;;;;;25.65;61.79;101133.44;4998317;28;20032;-80
2022/06/09 08:25:46;;;;;;;2.50;1.55;;;;;;;26.21;62.61;101104.66;5046822;28;20556;-80
2022/06/09 08:28:13;;;;;;;3.72;2.10;;;;;;;25.76;60.40;101124.47;5030548;28;20029;-80
2022/06/09 08:30:39;;;;;;;4.00;1.60;;;;;;;25.75;60.35;101149.84;5031666;28;20029;-80
2022/06/09 08:33:05;;;;;;;2.00;1.40;;;;;;;25.81;62.53;101124.56;5030691;28;20029;-80
2022/06/09 08:35:34;;;;;;;3.25;1.88;;;;;;;26.94;58.34;101134.34;5013912;28;20059;-80
2022/06/09 08:37:59;;;;;;;2.75;1.65;;;;;;;26.35;60.46;101132.19;5030550;28;20021;-80
2022/06/09 08:40:47;;;;;;;2.03;1.55;;;;;;;26.03;59.24;101121.16;5015832;28;20083;-80
2022/06/09 08:43:31;;;;;;;3.38;1.65;;;;;;;25.62;62.03;101144.75;5048474;28;20028;-80
2022/06/09 08:46:12;;;;;;;2.47;1.40;;;;;;;25.78;60.70;101154.78;5048578;28;20431;-80
2022/06/09 08:48:39;;;;;;;;;;;;;;;26.27;57.72;101156.97;5030157;28;20029;-80
2022/06/09 08:51:13;;;;;;;2.63;1.48;;;;;;;26.77;60.44;101156.06;5027721;28;19919;-80
2022/06/09 08:53:45;;;;;;;2.72;1.20;;;;;;;27.59;55.01;101142.66;5031332;28;20083;-80
2022/06/09 08:56:21;;;;;;;2.88;1.08;;;;;;;27.68;55.44;101162.81;5061654;28;20571;-80
2022/06/09 08:59:10;;;;;;;5.45;1.30;;;;;;;26.90;56.57;101154.88;5067074;28;20035;-80
2022/06/09 09:01:41;;;;;;;6.35;2.08;;;;;;;26.68;58.03;101169.22;5066895;28;20083;-80
2022/06/09 09:04:19;;;;;;;4.63;1.35;;;;;;;27.31;58.34;101177.09;5067537;28;20033;-80
2022/06/09 09:07:13;;;;;;;8.90;1.80;;;;;;;26.79;57.21;101180.19;5066107;28;20231;-79
2022/06/09 09:09:40;;;;;;;5.78;1.40;;;;;;;27.44;55.95;101182.09;5064696;28;20024;-80
2022/06/09 09:12:11;;;;;;;5.32;1.40;;;;;;;27.82;57.04;101184.91;5083490;28;20480;-80
2022/06/09 09:14:47;;;;;;;9.20;1.92;;;;;;;27.69;55.98;101175.28;5068356;28;20025;-79
2022/06/09 09:17:24;;;;;;;6.18;1.30;;;;;;;28.42;54.17;101186.50;5064945;28;20028;-79
2022/06/09 09:20:20;;;;;;;14.52;3.85;;;;;;;29.07;52.46;101189.88;5068126;28;20052;-79
2022/06/09 09:22:55;;;;;;;5.65;1.45;;;;;;;29.37;52.00;101191.06;5068384;28;20029;-79
2022/06/09 09:25:43;;;;;;;8.70;2.00;;;;;;;29.27;49.98;101196.50;5062096;28;20021;-80
2022/06/09 09:28:23;;;;;;;2.70;0.63;;;;;;;28.92;50.61;101200.69;5067695;28;20548;-80
2022/06/09 09:31:15;;;;;;;3.53;1.10;;;;;;;29.96;52.34;101208.88;5067974;28;20024;-80
2022/06/09 09:33:41;;;;;;;5.57;1.08;;;;;;;30.30;49.65;101220.06;5058684;28;20032;-80
2022/06/09 09:36:14;;;;;;;3.42;0.80;;;;;;;30.14;49.93;101202.91;5066577;28;20507;-80
2022/06/09 09:38:47;;;;;;;3.40;0.70;;;;;;;30.53;49.61;101223.31;5070965;28;20016;-79
2022/06/09 09:41:33;;;;;;;4.15;0.93;;;;;;;29.98;48.35;101219.50;5060729;28;20102;-79
2022/06/09 09:44:00;;;;;;;4.07;1.40;;;;;;;28.91;51.01;101215.31;5072566;28;20047;-79
2022/06/09 09:46:31;;;;;;;9.52;1.65;;;;;;;28.39;53.85;101225.00;5072020;28;20035;-79
2022/06/09 09:48:59;;;;;;;5.35;1.45;;;;;;;28.84;51.11;101221.00;5070840;28;20107;-79
2022/06/09 09:51:34;;;;;;;3.80;1.10;;;;;;;27.81;53.40;101237.53;5069640;28;20025;-79
2022/06/09 09:54:08;;;;;;;8.88;1.90;;;;;;;27.54;52.48;101219.31;5063370;28;20373;-80
2022/06/09 09:56:37;;;;;;;6.68;1.27;;;;;;;28.42;52.12;101250.84;5070574;28;20055;-79
2022/06/09 09:59:18;;;;;;;6.32;1.13;;;;;;;29.29;49.79;101224.25;5086606;28;20016;-79
2022/06/09 10:10:07;;;;;;;2.38;0.70;;;;;;;30.88;49.78;101259.78;5071152;28;20043;-79
2022/06/09 10:12:34;;;;;;;5.00;1.40;;;;;;;30.90;47.90;101258.41;5069531;28;20698;-79
2022/06/09 10:15:14;;;;;;;6.13;1.02;;;;;;;30.60;46.49;101250.28;5068952;28;20023;-79
2022/06/09 10:17:58;;;;;;;2.38;0.88;;;;;;;30.16;47.90;101270.69;5065044;28;20144;-79
2022/06/09 10:20:29;;;;;;;4.22;0.90;;;;;;;30.94;46.65;101285.91;5069648;28;20032;-79
2022/06/09 10:23:27;;;;;;;4.57;0.80;;;;;;;31.08;47.59;101278.81;5069777;28;20048;-79
2022/06/09 10:26:13;;;;;;;3.80;0.70;;;;;;;32.02;46.20;101275.38;5066445;28;20531;-79
2022/06/09 10:28:44;;;;;;;3.33;0.60;;;;;;;31.70;47.81;101287.56;5070198;28;20104;-79
2022/06/09 10:31:20;;;;;;;3.67;0.77;;;;;;;31.81;47.63;101280.13;5068113;28;20028;-79
2022/06/09 10:33:54;;;;;;;3.90;0.68;;;;;;;31.87;45.19;101289.91;5069229;28;20028;-79
2022/06/09 10:36:34;;;;;;;3.25;0.88;;;;;;;31.49;46.43;101283.31;5068638;28;20032;-79
2022/06/09 10:39:15;;;;;;;3.55;1.02;;;;;;;31.87;47.17;101300.81;5070259;28;20031;-79
2022/06/09 10:41:53;;;;;;;2.25;0.80;;;;;;;30.88;49.02;101311.53;5069396;28;20161;-79
2022/06/09 10:44:37;;;;;;;5.18;1.23;;;;;;;29.80;51.08;101297.84;5069945;28;20016;-79
2022/06/09 10:55:53;;;;;;;4.88;0.88;;;;;;;32.76;43.35;101314.38;5064858;28;20420;-79
2022/06/09 10:58:37;;;;;;;2.92;0.70;;;;;;;32.37;46.14;101328.09;5046285;28;20045;-78
2022/06/09 11:01:03;;;;;;;4.78;1.08;;;;;;;32.17;44.50;101326.34;5030938;28;20040;-78
2022/06/09 11:03:42;;;;;;;4.25;1.00;;;;;;;32.89;43.89;101326.56;5015064;28;20029;-79
2022/06/09 11:06:28;;;;;;;4.35;0.90;;;;;;;32.24;44.35;101318.63;5048205;28;20021;-79
2022/06/09 11:09:17;;;;;;;3.10;0.73;;;;;;;32.24;46.13;101332.28;5029550;28;20024;-78
2022/06/09 11:11:56;;;;;;;3.23;1.17;;;;;;;32.24;43.91;101321.38;5026538;28;20040;-78
2022/06/09 11:14:49;;;;;;;4.03;0.73;;;;;;;31.56;43.97;101330.19;5031620;28;20344;-79
2022/06/09 11:17:37;;;;;;;4.60;1.00;;;;;;;32.67;44.80;101340.72;5031026;28;20492;-79
2022/06/09 11:20:30;;;;;;;2.30;0.65;;;;;;;33.08;44.46;101340.34;5048333;28;20052;-78
2022/06/09 11:23:08;;;;;;;2.67;0.75;;;;;;;33.37;43.35;101331.25;5030546;28;20120;-78
2022/06/09 11:25:52;;;;;;;4.05;1.30;;;;;;;32.76;41.52;101344.44;5026534;28;20358;-78
2022/06/09 11:28:39;;;;;;;3.13;0.77;;;;;;;32.59;42.52;101361.25;5031309;28;20021;-78
2022/06/09 11:31:28;;;;;;;4.68;0.70;;;;;;;31.90;43.35;101354.03;5047655;28;20020;-78
2022/06/09 11:34:07;;;;;;;3.70;1.10;;;;;;;32.10;44.17;101358.63;5048295;28;20071;-78
2022/06/09 11:37:01;;;;;;;3.38;0.80;;;;;;;32.48;43.77;101369.81;5046671;28;20029;-78
2022/06/09 11:39:45;;;;;;;2.72;0.70;;;;;;;32.76;42.78;101366.31;4994486;28;20044;-79
2022/06/09 11:42:27;;;;;;;3.38;0.75;;;;;;;33.27;42.88;101361.47;5023441;28;20032;-78
2022/06/09 11:44:55;;;;;;;3.28;0.75;;;;;;;33.11;42.80;101364.38;5020660;28;20650;-78
2022/06/09 11:47:28;;;;;;;3.60;0.80;;;;;;;32.89;42.47;101358.56;5030341;28;20021;-78
2022/06/09 11:49:57;;;;;;;4.65;0.85;;;;;;;32.57;42.61;101359.91;5048112;28;20032;-78
2022/06/09 11:52:39;;;;;;;1.88;0.65;;;;;;;32.53;43.30;101372.53;5030925;28;20021;-78
2022/06/09 11:55:27;;;;;;;1.95;0.77;;;;;;;33.13;42.08;101375.84;5048357;28;20020;-78